Time;durP1;ratioP1;P1;durP2;ratioP2;P2;SDS_P1;SDS_P2;PMS_P1;PMS_P2;Temp;Humidity;BMP_temperature;BMP_pressure;BME280_temperature;BME280_humidity;BME280_pressure;Samples;Min_cycle;Max_cycle;Signal;HPM_P1;HPM_P2
2023/05/16 00:00:13;;;;;;;;;2.67;2.00;;;;;13.14;100.00;101800.00;5020933;28;45525;-78
2023/05/16 00:02:39;;;;;;;;;5.00;2.00;;;;;13.18;100.00;101809.78;5036534;28;45469;-77
2023/05/16 00:05:06;;;;;;;;;1.67;1.67;;;;;13.15;100.00;101807.97;5017634;28;46836;-77
2023/05/16 00:07:31;;;;;;;;;6.67;3.00;;;;;13.14;100.00;101805.31;5015580;28;45467;-78
2023/05/16 00:09:57;;;;;;;;;5.67;2.00;;;;;13.15;100.00;101794.72;5035851;28;45470;-77
2023/05/16 00:12:22;;;;;;;;;4.67;2.00;;;;;13.11;100.00;101804.41;5035870;28;45426;-77
2023/05/16 00:14:50;;;;;;;;;4.33;2.00;;;;;13.11;100.00;101800.84;5030281;28;45795;-77
2023/05/16 00:17:16;;;;;;;;;3.00;3.00;;;;;13.10;100.00;101807.00;5031728;28;45265;-77
2023/05/16 00:19:43;;;;;;;;;1.00;1.00;;;;;13.08;100.00;101808.75;5029301;28;45323;-77
2023/05/16 00:22:10;;;;;;;;;1.67;1.67;;;;;13.06;100.00;101810.50;5014722;28;45554;-77
2023/05/16 00:24:35;;;;;;;;;1.67;1.67;;;;;13.03;100.00;101805.13;5033417;28;46642;-77
2023/05/16 00:27:02;;;;;;;;;4.00;1.33;;;;;13.00;100.00;101806.00;5026893;28;68777;-78
2023/05/16 00:29:29;;;;;;;;;8.00;2.00;;;;;12.98;100.00;101805.06;5035890;28;45247;-78
2023/05/16 00:31:55;;;;;;;;;2.33;2.00;;;;;13.01;100.00;101809.53;5031217;28;45495;-77
2023/05/16 00:34:21;;;;;;;;;3.00;2.00;;;;;13.00;100.00;101810.41;5035666;28;45594;-77
2023/05/16 00:36:47;;;;;;;;;2.00;2.00;;;;;12.96;100.00;101805.91;5035364;28;45968;-76
2023/05/16 00:39:12;;;;;;;;;4.00;4.00;;;;;12.94;100.00;101804.97;5036282;28;45505;-78
2023/05/16 00:41:38;;;;;;;;;2.00;2.00;;;;;12.92;100.00;101807.59;5034692;28;60121;-78
2023/05/16 00:44:03;;;;;;;;;2.67;1.67;;;;;12.91;100.00;101803.16;5030149;28;45933;-77
2023/05/16 00:46:29;;;;;;;;;3.00;2.00;;;;;12.90;100.00;101809.34;5031994;28;67726;-78
2023/05/16 00:48:54;;;;;;;;;4.33;2.00;;;;;12.88;100.00;101804.88;5025742;28;48100;-77
2023/05/16 00:51:19;;;;;;;;;2.67;1.67;;;;;12.84;100.00;101801.28;5033600;28;45288;-77
2023/05/16 00:53:45;;;;;;;;;4.33;2.00;;;;;12.84;100.00;101803.94;5034488;28;67423;-78
2023/05/16 00:56:10;;;;;;;;;4.33;2.00;;;;;12.82;100.00;101805.66;5035440;28;45423;-76
2023/05/16 00:58:36;;;;;;;;;1.67;1.67;;;;;12.78;100.00;101803.81;5020918;28;45576;-78
2023/05/16 01:01:02;;;;;;;;;3.67;1.67;;;;;12.75;100.00;101802.00;5027156;28;62128;-78
2023/05/16 01:03:28;;;;;;;;;3.00;3.00;;;;;12.77;100.00;101802.03;5000049;28;46414;-78
2023/05/16 01:05:54;;;;;;;;;4.67;1.67;;;;;12.75;100.00;101802.00;5032160;28;45499;-76
2023/05/16 01:08:20;;;;;;;;;3.00;2.00;;;;;12.74;100.00;101799.34;5016527;28;45438;-76
2023/05/16 01:11:10;;;;;;;;;2.00;2.00;;;;;12.71;100.00;101804.56;5035667;28;45510;-77
2023/05/16 01:13:57;;;;;;;;;4.67;1.00;;;;;12.72;100.00;101806.34;5035010;28;46004;-78
2023/05/16 01:16:30;;;;;;;;;8.00;2.00;;;;;12.70;100.00;101806.34;5032988;28;45834;-77
2023/05/16 01:19:29;;;;;;;;;3.00;1.00;;;;;12.69;100.00;101804.56;5034902;28;45442;-77
2023/05/16 01:22:04;;;;;;;;;1.00;1.00;;;;;12.66;100.00;101806.25;5014120;28;45559;-77
2023/05/16 01:24:33;;;;;;;;;1.67;1.00;;;;;12.63;100.00;101807.09;5034107;28;46544;-76
2023/05/16 01:26:59;;;;;;;;;1.00;1.00;;;;;12.59;100.00;101810.56;5010615;28;45522;-77
2023/05/16 01:29:25;;;;;;;;;3.00;2.00;;;;;12.55;100.00;101814.00;5032441;28;59040;-77
2023/05/16 01:31:50;;;;;;;;;4.00;2.67;;;;;12.55;100.00;101806.06;5034113;28;45429;-78
2023/05/16 01:34:17;;;;;;;;;2.33;1.00;;;;;12.53;100.00;101808.69;5034440;28;61476;-77
2023/05/16 01:36:54;;;;;;;;;2.67;1.33;;;;;12.53;100.00;101811.34;5017175;28;45527;-78
2023/05/16 01:39:32;;;;;;;;;3.00;3.00;;;;;12.51;100.00;101804.22;5031366;28;45520;-77
2023/05/16 01:42:07;;;;;;;;;2.00;2.00;;;;;12.47;100.00;101812.97;5030841;28;45392;-77
2023/05/16 01:44:43;;;;;;;;;2.67;1.00;;;;;12.45;100.00;101817.34;5007609;28;47306;-77
2023/05/16 01:47:12;;;;;;;;;2.67;1.33;;;;;12.42;100.00;101817.31;5034622;28;45359;-77
2023/05/16 01:50:16;;;;;;;;;3.00;1.00;;;;;12.41;100.00;101811.13;5016917;28;45300;-77
2023/05/16 01:53:08;;;;;;;;;3.00;1.00;;;;;12.38;100.00;101820.75;5029546;28;45666;-76
2023/05/16 01:55:46;;;;;;;;;1.00;1.00;;;;;12.36;100.00;101815.44;5037084;28;47643;-77
2023/05/16 01:58:13;;;;;;;;;3.67;2.00;;;;;12.32;100.00;101811.81;5019500;28;45415;-77
2023/05/16 02:00:41;;;;;;;;;4.00;2.00;;;;;12.30;100.00;101816.19;5029170;28;45483;-77
2023/05/16 02:03:07;;;;;;;;;1.00;1.00;;;;;12.28;100.00;101819.66;5030846;28;45351;-76
2023/05/16 02:05:33;;;;;;;;;3.33;1.00;;;;;12.26;100.00;101814.34;5036139;28;48308;-77
2023/05/16 02:07:59;;;;;;;;;2.33;1.00;;;;;12.26;100.00;101822.28;5027012;28;45383;-77
2023/05/16 02:10:24;;;;;;;;;4.67;1.33;;;;;12.24;100.00;101809.88;5019696;28;45419;-77
2023/05/16 02:12:50;;;;;;;;;3.33;2.00;;;;;12.25;100.00;101819.59;5029888;28;45539;-77
2023/05/16 02:15:16;;;;;;;;;5.33;1.00;;;;;12.24;100.00;101820.47;5016404;28;46851;-77
2023/05/16 02:17:41;;;;;;;;;3.67;2.00;;;;;12.20;100.00;101819.53;5034200;28;45471;-77
2023/05/16 02:20:10;;;;;;;;;3.33;2.00;;;;;12.21;100.00;101817.78;5036014;28;57607;-77
2023/05/16 02:22:38;;;;;;;;;1.00;1.00;;;;;12.22;100.00;101827.50;5020019;28;45812;-76
2023/05/16 02:25:04;;;;;;;;;2.00;1.00;;;;;12.20;100.00;101821.28;5037784;28;47527;-77
2023/05/16 02:27:29;;;;;;;;;3.00;2.00;;;;;12.17;100.00;101826.50;5033438;28;45459;-77
2023/05/16 02:29:55;;;;;;;;;4.33;2.00;;;;;12.18;100.00;101828.28;5037720;28;61324;-77
2023/05/16 02:32:20;;;;;;;;;1.33;1.00;;;;;12.16;100.00;101827.38;5036194;28;61406;-78
2023/05/16 02:34:46;;;;;;;;;4.67;1.00;;;;;12.14;100.00;101821.13;5035982;28;46458;-77
2023/05/16 02:37:11;;;;;;;;;3.00;1.00;;;;;12.10;100.00;101825.50;5034600;28;68920;-78
2023/05/16 02:39:36;;;;;;;;;1.33;1.00;;;;;12.09;100.00;101825.44;5007984;28;45915;-77
2023/05/16 02:42:03;;;;;;;;;1.00;1.00;;;;;12.07;100.00;101833.34;5037318;28;55659;-76
2023/05/16 02:44:28;;;;;;;;;3.00;1.00;;;;;12.06;100.00;101839.53;5030928;28;47745;-79
2023/05/16 02:46:53;;;;;;;;;1.00;1.00;;;;;12.03;100.00;101837.69;5037112;28;65437;-77
2023/05/16 02:49:19;;;;;;;;;2.67;1.00;;;;;12.03;100.00;101845.63;5037789;28;45514;-77
2023/05/16 02:51:44;;;;;;;;;5.67;1.00;;;;;12.02;100.00;101841.19;5037493;28;45421;-76
2023/05/16 02:54:10;;;;;;;;;5.67;3.00;;;;;11.99;100.00;101837.63;5037572;28;45346;-78
2023/05/16 02:56:36;;;;;;;;;1.67;1.00;;;;;12.01;100.00;101844.72;5037065;28;46312;-77
2023/05/16 02:59:02;;;;;;;;;1.00;0.00;;;;;11.99;100.00;101834.97;5036895;28;45635;-76
2023/05/16 03:01:28;;;;;;;;;0.00;0.00;;;;;12.01;100.00;101841.19;5038791;28;45293;-76
2023/05/16 03:03:54;;;;;;;;;1.00;1.00;;;;;11.98;100.00;101839.34;5035463;28;46156;-77
2023/05/16 03:06:19;;;;;;;;;1.00;1.00;;;;;11.95;100.00;101834.00;5036902;28;45509;-77
2023/05/16 03:08:44;;;;;;;;;2.67;1.00;;;;;11.95;100.00;101836.66;5035363;28;45485;-78
2023/05/16 03:11:10;;;;;;;;;4.00;2.00;;;;;11.98;100.00;101841.09;5036949;28;62275;-76
2023/05/16 03:13:35;;;;;;;;;1.00;1.00;;;;;11.95;100.00;101835.75;5037055;28;45531;-76
2023/05/16 03:16:01;;;;;;;;;2.00;2.00;;;;;11.94;100.00;101841.91;5018087;28;45410;-78
2023/05/16 03:18:26;;;;;;;;;1.33;0.67;;;;;11.89;100.00;101844.47;5037196;28;45506;-76
2023/05/16 03:20:55;;;;;;;;;1.67;1.33;;;;;11.88;100.00;101853.25;5035850;28;60883;-78
2023/05/16 03:23:20;;;;;;;;;2.50;2.25;;;;;11.84;100.00;101846.09;5036421;28;46132;-77
2023/05/16 03:25:46;;;;;;;;;2.00;2.00;;;;;11.85;100.00;101854.94;5035970;28;65655;-77
2023/05/16 03:28:11;;;;;;;;;4.33;1.00;;;;;11.83;100.00;101848.72;5037135;28;45510;-77
2023/05/16 03:30:36;;;;;;;;;4.33;2.00;;;;;11.80;100.00;101855.69;5016978;28;49917;-76
2023/05/16 03:33:03;;;;;;;;;5.00;1.67;;;;;11.77;100.00;101854.72;5035280;28;66185;-77
2023/05/16 03:35:29;;;;;;;;;3.33;2.00;;;;;11.74;100.00;101859.97;5018641;28;45519;-77
2023/05/16 03:37:54;;;;;;;;;4.00;3.00;;;;;11.70;100.00;101858.97;5037064;28;45597;-77
2023/05/16 03:40:20;;;;;;;;;1.50;1.00;;;;;11.71;100.00;101873.09;5036150;28;45513;-77
2023/05/16 03:42:46;;;;;;;;;3.50;2.00;;;;;11.70;100.00;101874.84;5036031;28;47310;-77
2023/05/16 03:45:11;;;;;;;;;4.25;2.00;;;;;11.69;100.00;101874.84;5036161;28;48618;-78
2023/05/16 03:47:37;;;;;;;;;2.75;2.75;;;;;11.68;100.00;101883.63;5036144;28;58933;-76
2023/05/16 03:50:03;;;;;;;;;2.00;2.00;;;;;11.66;100.00;101886.22;5036805;28;45420;-78
2023/05/16 03:52:28;;;;;;;;;4.00;2.00;;;;;11.63;100.00;101886.16;5036791;28;46409;-77
2023/05/16 03:54:53;;;;;;;;;1.00;1.00;;;;;11.62;100.00;101886.13;5035866;28;56236;-78
2023/05/16 03:57:19;;;;;;;;;3.00;1.67;;;;;11.59;100.00;101879.00;5036076;28;59480;-77
2023/05/16 03:59:44;;;;;;;;;1.67;1.00;;;;;11.59;100.00;101886.94;5036384;28;45395;-77
2023/05/16 04:02:10;;;;;;;;;4.25;1.75;;;;;11.59;100.00;101883.41;5032758;28;46600;-76
2023/05/16 04:04:35;;;;;;;;;4.25;2.00;;;;;11.54;100.00;101885.94;5010792;28;45329;-77
2023/05/16 04:07:01;;;;;;;;;6.50;2.00;;;;;11.53;100.00;101879.75;5004604;28;64541;-77
2023/05/16 04:09:26;;;;;;;;;3.25;2.00;;;;;11.53;100.00;101894.75;5014764;28;45498;-77
2023/05/16 04:11:52;;;;;;;;;3.75;2.25;;;;;11.55;100.00;101895.66;5012035;28;45931;-77
2023/05/16 04:14:17;;;;;;;;;1.25;1.00;;;;;11.54;100.00;101896.50;5008655;28;65925;-77
2023/05/16 04:16:42;;;;;;;;;3.00;2.00;;;;;11.52;100.00;101893.84;5008873;28;45484;-76
2023/05/16 04:19:08;;;;;;;;;2.25;1.00;;;;;11.52;100.00;101900.88;5010991;28;57435;-77
2023/05/16 04:21:34;;;;;;;;;1.50;1.00;;;;;11.50;100.00;101900.88;5007932;28;46519;-77
2023/05/16 04:24:00;;;;;;;;;2.50;1.75;;;;;11.50;100.00;101903.50;5008162;28;45355;-77
2023/05/16 04:26:26;;;;;;;;;2.00;1.25;;;;;11.50;100.00;101907.88;5011579;28;45325;-77
2023/05/16 04:28:51;;;;;;;;;4.25;1.25;;;;;11.48;100.00;101901.66;5012534;28;45371;-78
2023/05/16 04:31:17;;;;;;;;;2.25;1.00;;;;;11.49;100.00;101908.72;5009384;28;46153;-77
2023/05/16 04:33:42;;;;;;;;;3.50;1.00;;;;;11.47;100.00;101900.78;4990504;28;54827;-77
2023/05/16 04:36:08;;;;;;;;;1.75;1.00;;;;;11.46;100.00;101901.63;5007788;28;62542;-76
2023/05/16 04:38:33;;;;;;;;;3.50;1.00;;;;;11.50;100.00;101907.88;5004142;28;57338;-76
2023/05/16 04:40:58;;;;;;;;;3.50;1.00;;;;;11.49;100.00;101899.03;5009965;28;59778;-77
2023/05/16 04:43:24;;;;;;;;;2.00;2.00;;;;;11.52;100.00;101915.00;5009215;28;46736;-76
2023/05/16 04:45:49;;;;;;;;;3.25;1.00;;;;;11.51;100.00;101913.22;5014662;28;46005;-77
2023/05/16 04:48:15;;;;;;;;;2.75;1.00;;;;;11.51;100.00;101913.22;5001232;28;45983;-79
2023/05/16 04:50:40;;;;;;;;;1.00;1.00;;;;;11.51;100.00;101913.22;5004447;28;46343;-77
2023/05/16 04:53:05;;;;;;;;;1.00;1.00;;;;;11.50;100.00;101918.44;5012965;28;66200;-76
2023/05/16 04:55:31;;;;;;;;;2.00;1.00;;;;;11.51;100.00;101921.16;5015833;28;61242;-73
2023/05/16 04:57:56;;;;;;;;;3.25;1.75;;;;;11.53;100.00;101916.78;5015393;28;61644;-74
2023/05/16 05:00:22;;;;;;;;;2.75;1.50;;;;;11.55;100.00;101922.09;5009802;28;59238;-74
2023/05/16 05:02:47;;;;;;;;;1.33;1.00;;;;;11.58;100.00;101930.13;5007414;28;45462;-74
2023/05/16 05:05:12;;;;;;;;;3.50;2.00;;;;;11.59;100.00;101926.63;4996317;28;45509;-74
2023/05/16 05:07:38;;;;;;;;;1.00;1.00;;;;;11.64;100.00;101937.31;5014005;28;55411;-75
2023/05/16 05:10:05;;;;;;;;;4.25;3.00;;;;;11.65;100.00;101936.47;5011533;28;63021;-73
2023/05/16 05:12:31;;;;;;;;;0.00;0.00;;;;;11.61;100.00;101929.28;5017264;28;45760;-76
2023/05/16 05:14:56;;;;;;;;;3.00;2.00;;;;;11.60;100.00;101935.44;5019118;28;58033;-78
2023/05/16 05:17:22;;;;;;;;;4.25;1.00;;;;;11.57;100.00;101925.69;5021041;28;45557;-81
2023/05/16 05:19:47;;;;;;;;;2.50;1.50;;;;;11.55;100.00;101927.41;5014871;28;47243;-78
2023/05/16 05:22:13;;;;;;;;;3.75;2.00;;;;;11.55;100.00;101930.03;5014356;28;45540;-77
2023/05/16 05:24:39;;;;;;;;;4.00;1.00;;;;;11.57;100.00;101936.28;5021630;28;45354;-76
2023/05/16 05:27:04;;;;;;;;;5.00;2.00;;;;;11.59;100.00;101939.84;5017454;28;63301;-77
2023/05/16 05:29:30;;;;;;;;;1.00;1.00;;;;;11.62;100.00;101934.66;5018918;28;46175;-77
2023/05/16 05:31:55;;;;;;;;;2.67;2.00;;;;;11.67;100.00;101934.75;5016077;28;65270;-75
2023/05/16 05:34:20;;;;;;;;;3.00;2.00;;;;;11.71;100.00;101945.44;5020418;28;45450;-78
2023/05/16 05:36:46;;;;;;;;;3.00;1.00;;;;;11.72;100.00;101941.06;5017186;28;45475;-77
2023/05/16 05:39:11;;;;;;;;;1.33;1.33;;;;;11.75;100.00;101946.41;5019575;28;68806;-76
2023/05/16 05:41:36;;;;;;;;;6.00;2.00;;;;;11.80;100.00;101947.41;5017200;28;45360;-76
2023/05/16 05:44:02;;;;;;;;;4.67;2.00;;;;;11.81;100.00;101946.53;5017320;28;63799;-78
2023/05/16 05:46:27;;;;;;;;;9.00;2.00;;;;;11.84;100.00;101946.66;5011832;28;57711;-78
2023/05/16 05:48:53;;;;;;;;;4.33;2.00;;;;;11.87;100.00;101944.06;5017736;28;52740;-77
2023/05/16 05:51:18;;;;;;;;;3.00;2.00;;;;;11.88;100.00;101943.25;5019857;28;45514;-77
2023/05/16 05:53:44;;;;;;;;;1.00;1.00;;;;;11.92;100.00;101945.06;5007408;28;45483;-78
2023/05/16 05:56:09;;;;;;;;;4.00;1.00;;;;;11.94;100.00;101955.72;5017790;28;45598;-78
2023/05/16 05:58:35;;;;;;;;;3.00;1.00;;;;;11.90;100.00;101944.16;5013433;28;46379;-77
2023/05/16 06:01:00;;;;;;;;;3.00;2.00;;;;;11.94;100.00;101950.44;5021452;28;45441;-78
2023/05/16 06:03:26;;;;;;;;;3.00;1.50;;;;;11.96;100.00;101954.88;5022582;28;45558;-78
2023/05/16 06:05:51;;;;;;;;;1.00;1.00;;;;;12.00;100.00;101951.47;5030146;28;61493;-75
2023/05/16 06:08:16;;;;;;;;;3.33;1.00;;;;;11.97;100.00;101954.03;5037117;28;46401;-74
2023/05/16 06:10:42;;;;;;;;;2.25;2.00;;;;;11.96;100.00;101957.53;5037399;28;65271;-75
2023/05/16 06:13:07;;;;;;;;;3.00;2.00;;;;;11.92;100.00;101960.06;5036130;28;50466;-75
2023/05/16 06:15:32;;;;;;;;;3.67;2.00;;;;;11.86;100.00;101968.75;5034867;28;50703;-74
2023/05/16 06:17:58;;;;;;;;;2.00;2.00;;;;;11.84;100.00;101962.53;5035967;28;70531;-74
2023/05/16 06:20:23;;;;;;;;;1.00;1.00;;;;;11.84;100.00;101969.59;5032270;28;45472;-75
2023/05/16 06:22:48;;;;;;;;;5.00;1.00;;;;;11.84;100.00;101966.94;5018404;28;58038;-75
2023/05/16 06:25:14;;;;;;;;;2.00;1.00;;;;;11.85;100.00;101972.28;5019259;28;45613;-75
2023/05/16 06:27:39;;;;;;;;;1.67;1.67;;;;;11.87;100.00;101962.59;5035520;28;45557;-76
2023/05/16 06:30:05;;;;;;;;;1.67;1.67;;;;;11.92;100.00;101974.19;5030286;28;45492;-74
2023/05/16 06:32:31;;;;;;;;;2.00;2.00;;;;;11.96;100.00;101973.41;5028607;28;45525;-74
2023/05/16 06:34:56;;;;;;;;;3.00;2.00;;;;;12.01;100.00;101973.53;5039127;28;45289;-75
2023/05/16 06:37:22;;;;;;;;;2.00;2.00;;;;;12.07;100.00;101976.31;5034827;28;69162;-75
2023/05/16 06:39:48;;;;;;;;;4.00;1.00;;;;;12.10;100.00;101978.16;5030322;28;45148;-77
2023/05/16 06:42:13;;;;;;;;;1.00;1.00;;;;;12.13;100.00;101981.75;5035536;28;45375;-75
2023/05/16 06:44:38;;;;;;;;;2.00;0.33;;;;;12.13;100.00;101978.22;5038867;28;45530;-75
2023/05/16 06:47:04;;;;;;;;;3.67;1.00;;;;;12.15;100.00;101989.75;5033242;28;59517;-75
2023/05/16 06:49:29;;;;;;;;;1.67;1.00;;;;;12.17;100.00;101988.00;5036821;28;45481;-76
2023/05/16 06:51:55;;;;;;;;;2.00;1.00;;;;;12.15;100.00;101984.44;5037293;28;45473;-75
2023/05/16 06:54:20;;;;;;;;;1.00;1.00;;;;;12.16;100.00;101984.47;5037093;28;46598;-75
2023/05/16 06:56:46;;;;;;;;;1.00;1.00;;;;;12.22;100.00;101992.56;5037608;28;47295;-76
2023/05/16 06:59:11;;;;;;;;;3.67;1.67;;;;;12.24;100.00;101984.63;5036250;28;60236;-75
2023/05/16 07:01:36;;;;;;;;;0.00;0.00;;;;;12.25;100.00;101986.41;5027380;28;63047;-75
2023/05/16 07:04:02;;;;;;;;;0.67;0.67;;;;;12.30;100.00;101992.72;5180131;22;45511;-76
2023/05/16 07:06:27;;;;;;;;;1.33;1.33;;;;;12.36;100.00;101986.66;5072896;28;71152;-76
2023/05/16 07:08:52;;;;;;;;;0.00;0.00;;;;;12.41;100.00;101992.94;5049380;28;45483;-75
2023/05/16 07:11:18;;;;;;;;;2.00;1.00;;;;;12.47;100.00;101988.72;5077072;28;61322;-75
2023/05/16 07:13:43;;;;;;;;;3.67;1.00;;;;;12.51;100.00;101990.53;5075961;28;58065;-75
2023/05/16 07:16:08;;;;;;;;;1.33;0.00;;;;;12.53;100.00;101982.66;5088885;27;67222;-77
2023/05/16 07:18:34;;;;;;;;;0.00;0.00;;;;;12.59;100.00;101990.72;5097775;27;45857;-76
2023/05/16 07:20:59;;;;;;;;;5.33;1.00;;;;;12.65;100.00;101993.50;5093792;27;45275;-76
2023/05/16 07:23:25;;;;;;;;;1.67;1.67;;;;;12.69;100.00;101997.13;5096049;27;61777;-76
2023/05/16 07:25:52;;;;;;;;;0.33;0.33;;;;;12.74;100.00;101993.69;5097377;27;46486;-78
2023/05/16 07:28:17;;;;;;;;;3.00;1.00;;;;;12.83;100.00;102003.56;5086192;27;45521;-77
2023/05/16 07:30:42;;;;;;;;;1.00;1.00;;;;;12.87;100.00;102010.72;5094319;27;45465;-77
2023/05/16 07:33:08;;;;;;;;;5.00;0.00;;;;;12.88;100.00;102009.88;5096894;27;58990;-77
2023/05/16 07:35:33;;;;;;;;;3.67;2.00;;;;;12.84;100.00;102003.63;5096205;27;68792;-76
2023/05/16 07:37:58;;;;;;;;;0.67;0.67;;;;;12.92;100.00;102005.53;5095077;27;45481;-76
2023/05/16 07:40:28;;;;;;;;;2.00;0.00;;;;;13.00;100.00;102017.19;5097388;27;45773;-77
2023/05/16 07:42:53;;;;;;;;;0.00;0.00;;;;;13.07;100.00;102008.50;5094297;27;45392;-77
2023/05/16 07:45:18;;;;;;;;;2.67;1.00;;;;;13.13;100.00;102005.94;5092365;27;47523;-78
2023/05/16 07:47:44;;;;;;;;;1.33;1.00;;;;;13.20;100.00;101999.00;5095403;27;67286;-78
2023/05/16 07:50:10;;;;;;;;;0.00;0.00;;;;;13.30;100.00;102003.66;5090822;27;45322;-78
2023/05/16 07:52:35;;;;;;;;;2.00;1.00;;;;;13.38;100.00;102010.00;5096662;27;45306;-78
2023/05/16 07:55:01;;;;;;;;;3.00;1.00;;;;;13.46;100.00;102004.81;5096635;27;45418;-77
2023/05/16 07:57:26;;;;;;;;;0.67;0.67;;;;;13.50;100.00;102009.31;5090129;27;45900;-76
2023/05/16 07:59:52;;;;;;;;;1.00;0.00;;;;;13.54;100.00;102004.09;5096757;27;57339;-78
2023/05/16 08:02:17;;;;;;;;;1.00;1.00;;;;;13.64;100.00;101997.19;5094353;27;45327;-77
2023/05/16 08:04:43;;;;;;;;;3.00;1.00;;;;;13.72;100.00;102000.84;5090143;27;46951;-77
2023/05/16 08:07:08;;;;;;;;;1.00;1.00;;;;;13.83;100.00;101993.06;5085688;27;52953;-77
2023/05/16 08:09:34;;;;;;;;;6.00;1.00;;;;;13.96;100.00;102002.16;5089041;27;45422;-77
2023/05/16 08:12:02;;;;;;;;;0.00;0.00;;;;;14.04;100.00;101996.06;5093718;27;45590;-77
2023/05/16 08:14:31;;;;;;;;;0.00;0.00;;;;;14.10;100.00;102000.56;5094583;27;47509;-78
2023/05/16 08:16:58;;;;;;;;;1.00;1.00;;;;;14.16;100.00;102006.88;5095115;27;45556;-78
2023/05/16 08:19:23;;;;;;;;;2.33;1.67;;;;;14.19;100.00;102005.16;5093859;27;45201;-77
2023/05/16 08:21:49;;;;;;;;;6.33;2.67;;;;;14.21;100.00;102006.94;5096482;27;45521;-78
2023/05/16 08:24:14;;;;;;;;;3.67;1.00;;;;;14.27;100.00;102008.78;5095438;27;46654;-78
2023/05/16 08:26:39;;;;;;;;;1.00;1.00;;;;;14.28;100.00;102007.94;5089745;27;61972;-78
2023/05/16 08:29:05;;;;;;;;;1.33;0.00;;;;;14.32;100.00;102005.34;5090259;27;45866;-79
2023/05/16 08:31:30;;;;;;;;;3.33;3.00;;;;;14.40;100.00;102006.34;5090883;27;45468;-78
2023/05/16 08:33:55;;;;;;;;;4.33;2.00;;;;;14.50;100.00;101999.44;5094809;27;47157;-79
2023/05/16 08:36:21;;;;;;;;;2.33;2.00;;;;;14.59;100.00;102002.19;5067972;27;64888;-77
2023/05/16 08:38:48;;;;;;;;;2.67;1.00;;;;;14.65;100.00;102007.63;5084672;27;47526;-78
2023/05/16 08:41:14;;;;;;;;;3.67;1.00;;;;;14.71;100.00;102005.91;5093984;27;45456;-77
2023/05/16 08:43:39;;;;;;;;;0.00;0.00;;;;;14.72;100.00;102005.91;5064172;27;69786;-79
2023/05/16 08:46:06;;;;;;;;;0.00;0.00;;;;;14.71;100.00;101998.81;5077580;27;45559;-79
2023/05/16 08:48:32;;;;;;;;;0.00;0.00;;;;;14.72;100.00;102000.59;5095666;27;45284;-79
2023/05/16 08:50:57;;;;;;;;;3.00;0.00;;;;;14.70;100.00;101999.72;5077367;27;45457;-79
2023/05/16 08:53:28;;;;;;;;;0.00;0.00;;;;;14.73;100.00;101997.06;5075511;27;46629;-78
2023/05/16 08:55:53;;;;;;;;;1.00;1.00;;;;;14.71;100.00;102005.91;5068785;27;45950;-79
2023/05/16 08:58:19;;;;;;;;;0.00;0.00;;;;;14.59;100.00;101988.91;5088189;27;62452;-79
2023/05/16 09:00:45;;;;;;;;;3.33;2.33;;;;;14.51;100.00;101995.91;5088961;27;45558;-81
2023/05/16 09:03:11;;;;;;;;;2.67;0.00;;;;;14.50;100.00;101995.88;5086467;27;46813;-79
2023/05/16 09:05:37;;;;;;;;;0.00;0.00;;;;;14.47;100.00;101987.81;5072489;27;63891;-79
2023/05/16 09:08:02;;;;;;;;;0.00;0.00;;;;;14.50;100.00;102002.09;5074720;27;61575;-81
2023/05/16 09:10:27;;;;;;;;;2.00;1.00;;;;;14.55;100.00;101988.88;5089684;27;45647;-79
2023/05/16 09:12:53;;;;;;;;;1.00;0.00;;;;;14.59;100.00;101994.22;5088890;27;71591;-79
2023/05/16 09:15:20;;;;;;;;;1.33;0.00;;;;;14.64;100.00;101997.81;5068626;27;54675;-79
2023/05/16 09:17:46;;;;;;;;;0.33;0.00;;;;;14.71;100.00;101992.63;5089131;27;45496;-81
2023/05/16 09:20:19;;;;;;;;;1.67;0.33;;;;;14.75;100.00;101997.06;5069406;27;45401;-78
2023/05/16 09:22:51;;;;;;;;;0.00;0.00;;;;;14.82;100.00;101997.19;5082738;27;46828;-80
2023/05/16 09:25:17;;;;;;;;;3.00;0.00;;;;;14.92;100.00;102009.72;5084994;27;45370;-80
2023/05/16 09:27:42;;;;;;;;;3.00;0.00;;;;;15.00;100.00;102006.25;5090401;27;55060;-80
2023/05/16 09:30:08;;;;;;;;;0.00;0.00;;;;;15.05;100.00;102004.53;5092870;27;45535;-80
2023/05/16 09:32:33;;;;;;;;;0.00;0.00;;;;;15.20;100.00;101999.38;5089573;27;47403;-79
2023/05/16 09:34:59;;;;;;;;;0.67;0.00;;;;;15.35;100.00;101999.56;5087824;27;63508;-80
2023/05/16 09:37:24;;;;;;;;;0.00;0.00;;;;;15.44;100.00;101996.06;5086513;27;45477;-81
2023/05/16 09:39:51;;;;;;;;;2.00;0.00;;;;;15.54;100.00;102008.59;5089528;27;45377;-82
2023/05/16 09:42:18;;;;;;;;;4.00;1.00;;;;;15.59;100.00;102004.19;5069326;27;47791;-79
2023/05/16 09:44:55;;;;;;;;;0.00;0.00;;;;;15.58;100.00;101994.44;5075374;27;46008;-80
2023/05/16 09:47:21;;;;;;;;;2.00;0.67;;;;;15.56;100.00;101996.22;5092343;27;45490;-81
2023/05/16 09:49:50;;;;;;;;;3.00;0.00;;;;;15.60;100.00;101995.34;5085309;27;52484;-79
2023/05/16 09:52:16;;;;;;;;;1.33;0.33;;;;;15.65;100.00;102001.63;5085139;27;47658;-80
2023/05/16 09:54:42;;;;;;;;;0.67;0.00;;;;;15.68;100.00;101998.13;5088671;27;45845;-80
2023/05/16 09:57:07;;;;;;;;;0.67;0.00;;;;;15.70;100.00;102004.34;5090438;27;45476;-79
2023/05/16 09:59:39;;;;;;;;;0.00;0.00;;;;;15.67;100.00;101991.91;5086427;27;45590;-77
2023/05/16 10:02:06;;;;;;;;;3.00;0.00;;;;;15.71;100.00;102007.03;5090644;27;46631;-81
2023/05/16 10:04:35;;;;;;;;;2.00;0.00;;;;;15.75;100.00;101999.94;5088589;27;45502;-81
2023/05/16 10:07:03;;;;;;;;;1.33;0.00;;;;;15.75;100.00;101988.41;5090435;27;45478;-80
2023/05/16 10:09:31;;;;;;;;;0.00;0.00;;;;;15.74;100.00;101992.84;5075922;27;45931;-79
2023/05/16 10:11:57;;;;;;;;;2.00;0.33;;;;;15.76;100.00;101998.16;5095578;27;47173;-80
2023/05/16 10:14:24;;;;;;;;;1.67;1.00;;;;;15.80;100.00;102002.66;5083205;27;45466;-79
2023/05/16 10:16:51;;;;;;;;;0.00;0.00;;;;;15.85;100.00;102001.81;5097214;27;45250;-79
2023/05/16 10:19:19;;;;;;;;;1.00;0.00;;;;;15.87;98.67;101991.16;5094437;27;45388;-80
2023/05/16 10:21:50;;;;;;;;;1.33;0.00;;;;;15.82;99.17;101982.22;5098408;27;46997;-79
2023/05/16 10:24:18;;;;;;;;;0.00;0.00;;;;;15.86;98.22;101990.25;5074411;27;46553;-79
2023/05/16 10:26:44;;;;;;;;;1.00;0.00;;;;;15.89;98.87;101992.06;5091794;27;45345;-77
2023/05/16 10:29:09;;;;;;;;;0.00;0.00;;;;;15.92;98.64;101992.06;5096615;27;45461;-75
2023/05/16 10:31:35;;;;;;;;;0.00;0.00;;;;;15.92;94.74;101995.63;5091628;27;47448;-74
2023/05/16 10:34:01;;;;;;;;;0.00;0.00;;;;;15.97;96.15;101991.22;5079123;27;45490;-74
2023/05/16 10:36:26;;;;;;;;;0.00;0.00;;;;;16.07;96.24;101976.22;5073159;27;65056;-73
2023/05/16 10:38:52;;;;;;;;;0.67;0.67;;;;;16.22;96.43;101981.63;5078188;27;53364;-79
2023/05/16 10:41:18;;;;;;;;;2.00;0.67;;;;;16.43;96.74;101969.31;5092128;27;51198;-76
2023/05/16 10:43:45;;;;;;;;;0.00;0.00;;;;;16.68;95.98;101975.66;5073569;27;65176;-78
2023/05/16 10:46:11;;;;;;;;;1.00;0.00;;;;;16.91;95.66;101986.44;5078789;27;45399;-79
2023/05/16 10:48:38;;;;;;;;;1.00;0.00;;;;;17.03;96.61;101986.47;5094392;27;45539;-77
2023/05/16 10:51:36;;;;;;;;;2.00;0.33;;;;;17.12;94.19;101986.50;5077810;27;46190;-79
2023/05/16 10:54:07;;;;;;;;;0.00;0.00;;;;;17.12;94.15;101985.63;5095382;27;45529;-79
2023/05/16 10:56:34;;;;;;;;;1.00;1.00;;;;;17.15;92.60;101993.63;5095241;27;45549;-77
2023/05/16 10:58:59;;;;;;;;;0.67;0.67;;;;;17.19;93.59;101992.75;5094998;27;45525;-77
2023/05/16 11:01:32;;;;;;;;;0.00;0.00;;;;;17.22;92.27;101990.09;5093269;27;47271;-76
2023/05/16 11:03:58;;;;;;;;;0.00;0.00;;;;;17.32;92.00;101991.00;5072339;28;45481;-78
2023/05/16 11:06:23;;;;;;;;;0.00;0.00;;;;;17.48;92.94;101988.38;5075535;28;45469;-78
2023/05/16 11:09:10;;;;;;;;;1.33;0.00;;;;;17.64;91.85;101983.91;5072751;28;45428;-76
2023/05/16 11:11:45;;;;;;;;;1.00;1.00;;;;;17.74;91.22;101982.19;5075964;28;46718;-76
2023/05/16 11:14:44;;;;;;;;;0.00;0.00;;;;;17.88;91.38;101976.81;5076434;28;45637;-77